^^
Grace C. Lehan Memorial Weather Station Historical Data
Daily Summary for September 2, 2021 Units:  Both    English   Metric
Daily Weekly Monthly Yearly
  High: Low: Average:
Temperature: 82.5 °F /  28.1 °C 49.6 °F /  9.8 °C 62.9 °F /  17.2 °C
Dew Point: 55.9 °F /  13.3 °C 32.1 °F /  0.1 °C 46.8 °F /  8.2 °C
Humidity: 80% 32.3% 58%
Wind Speed: 6.8mph /  10.9km/h - 1mph /  1.6km/h
Wind Gust: 17mph /  27.4km/h - -
Wind- - WNW
Pressure: 29.80 in /  1009 hPa 29.60 in /  1002.3 hPa -
Precipitation: 0.00 in /  0 mm    
 
 
Tabular Data for September 2, 2021
Time Temperature Dew Point Pressure Wind Wind Speed Wind Gust Humidity Rainfall Rate (Hourly) solar
00:09 49.6 °F /  9.8 °C 32.2 °F /  0.1 °C 29.78in /  1008.4hPa Calm     51% 0.00in /  0mm 0 W/m2
00:14 49.7 °F /  9.8 °C 32.5 °F /  0.3 °C 29.78in /  1008.4hPa Calm     51.4% 0.00in /  0mm 0 W/m2
00:19 49.9 °F /  9.9 °C 32.7 °F /  0.4 °C 29.78in /  1008.4hPa Calm     51.3% 0.00in /  0mm 0 W/m2
00:24 49.9 °F /  9.9 °C 32.2 °F /  0.1 °C 29.78in /  1008.4hPa Calm     50.4% 0.00in /  0mm 0 W/m2
00:29 50 °F /  10 °C 32.1 °F /  0.1 °C 29.77in /  1008hPa Calm   1mph /  1.6km/h 50% 0.00in /  0mm 0 W/m2
00:34 50.1 °F /  10.1 °C 32.2 °F /  0.1 °C 29.77in /  1008hPa Calm   1mph /  1.6km/h 50% 0.00in /  0mm 0 W/m2
00:39 50.2 °F /  10.1 °C 32.2 °F /  0.1 °C 29.77in /  1008hPa Calm     49.8% 0.00in /  0mm 0 W/m2
00:44 50.3 °F /  10.2 °C 32.4 °F /  0.2 °C 29.77in /  1008hPa Calm     49.9% 0.00in /  0mm 0 W/m2
00:49 50.4 °F /  10.2 °C 33 °F /  0.6 °C 29.77in /  1008hPa Calm     51.1% 0.00in /  0mm 0 W/m2
00:54 50.5 °F /  10.3 °C 33.5 °F /  0.8 °C 29.76in /  1007.7hPa Calm     52% 0.00in /  0mm 0 W/m2
00:59 50.4 °F /  10.2 °C 33.5 °F /  0.8 °C 29.76in /  1007.7hPa Calm     52% 0.00in /  0mm 0 W/m2
01:04 50.4 °F /  10.2 °C 33.5 °F /  0.8 °C 29.76in /  1007.7hPa Calm     52% 0.00in /  0mm 0 W/m2
01:09 50.5 °F /  10.3 °C 33.8 °F /  1 °C 29.76in /  1007.7hPa Calm     52.5% 0.00in /  0mm 0 W/m2
01:14 50.6 °F /  10.3 °C 34.8 °F /  1.6 °C 29.76in /  1007.7hPa Calm     54.3% 0.00in /  0mm 0 W/m2
01:19 50.8 °F /  10.4 °C 34.9 °F /  1.6 °C 29.76in /  1007.7hPa Calm     54.2% 0.00in /  0mm 0 W/m2
01:24 51 °F /  10.6 °C 35.1 °F /  1.7 °C 29.76in /  1007.7hPa Calm     54.3% 0.00in /  0mm 0 W/m2
01:29 51.2 °F /  10.7 °C 35.5 °F /  1.9 °C 29.76in /  1007.7hPa Calm     54.7% 0.00in /  0mm 0 W/m2
01:34 51.4 °F /  10.8 °C 35.9 °F /  2.2 °C 29.76in /  1007.7hPa Calm     55.2% 0.00in /  0mm 0 W/m2
01:39 51.5 °F /  10.8 °C 36.4 °F /  2.4 °C 29.76in /  1007.7hPa Calm     56% 0.00in /  0mm 0 W/m2
01:44 51.6 °F /  10.9 °C 37.2 °F /  2.9 °C 29.76in /  1007.7hPa Calm     57.6% 0.00in /  0mm 0 W/m2
01:49 51.6 °F /  10.9 °C 37.9 °F /  3.3 °C 29.76in /  1007.7hPa Calm     59.2% 0.00in /  0mm 0 W/m2
01:54 51.5 °F /  10.8 °C 38.3 °F /  3.5 °C 29.76in /  1007.7hPa Calm     60.6% 0.00in /  0mm 0 W/m2
01:59 51.3 °F /  10.7 °C 38 °F /  3.3 °C 29.77in /  1008hPa Calm     60.1% 0.00in /  0mm 0 W/m2
02:04 51.2 °F /  10.7 °C 38.8 °F /  3.8 °C 29.77in /  1008hPa Calm     62.3% 0.00in /  0mm 0 W/m2
02:09 51.2 °F /  10.7 °C 39.7 °F /  4.3 °C 29.77in /  1008hPa Calm     64.6% 0.00in /  0mm 0 W/m2
02:14 51 °F /  10.6 °C 40.4 °F /  4.7 °C 29.77in /  1008hPa Calm     66.7% 0.00in /  0mm 0 W/m2
02:19 50.9 °F /  10.5 °C 40.9 °F /  4.9 °C 29.77in /  1008hPa Calm     68.6% 0.00in /  0mm 0 W/m2
02:24 50.7 °F /  10.4 °C 40.8 °F /  4.9 °C 29.76in /  1007.7hPa Calm     68.8% 0.00in /  0mm 0 W/m2
02:29 50.4 °F /  10.2 °C 41 °F /  5 °C 29.76in /  1007.7hPa Calm     70% 0.00in /  0mm 0 W/m2
02:34 50.3 °F /  10.2 °C 40.9 °F /  4.9 °C 29.75in /  1007.3hPa Calm     70% 0.00in /  0mm 0 W/m2
02:39 50.3 °F /  10.2 °C 41 °F /  5 °C 29.75in /  1007.3hPa Calm     70.2% 0.00in /  0mm 0 W/m2
02:44 50.3 °F /  10.2 °C 41.3 °F /  5.2 °C 29.75in /  1007.3hPa Calm     71% 0.00in /  0mm 0 W/m2
02:49 50.3 °F /  10.2 °C 41.3 °F /  5.2 °C 29.75in /  1007.3hPa Calm     71% 0.00in /  0mm 0 W/m2
02:54 50.4 °F /  10.2 °C 41.4 °F /  5.2 °C 29.74in /  1007hPa Calm     71% 0.00in /  0mm 0 W/m2
02:59 50.5 °F /  10.3 °C 41.5 °F /  5.3 °C 29.74in /  1007hPa Calm     71% 0.00in /  0mm 0 W/m2
03:04 50.6 °F /  10.3 °C 41.5 °F /  5.3 °C 29.74in /  1007hPa Calm     71% 0.00in /  0mm 0 W/m2
03:09 50.6 °F /  10.3 °C 41.6 °F /  5.3 °C 29.74in /  1007hPa Calm     71% 0.00in /  0mm 0 W/m2
03:14 50.7 °F /  10.4 °C 41.7 °F /  5.4 °C 29.74in /  1007hPa Calm     71% 0.00in /  0mm 0 W/m2
03:19 50.8 °F /  10.4 °C 41.9 °F /  5.5 °C 29.73in /  1006.7hPa Calm     71.5% 0.00in /  0mm 0 W/m2
03:24 50.8 °F /  10.4 °C 41.8 °F /  5.4 °C 29.73in /  1006.7hPa Calm     71% 0.00in /  0mm 0 W/m2
03:29 50.9 °F /  10.5 °C 41.9 °F /  5.5 °C 29.73in /  1006.7hPa Calm     71.2% 0.00in /  0mm 0 W/m2
03:34 51 °F /  10.6 °C 41.6 °F /  5.3 °C 29.73in /  1006.7hPa Calm     70.2% 0.00in /  0mm 0 W/m2
03:39 51 °F /  10.6 °C 41.6 °F /  5.3 °C 29.73in /  1006.7hPa Calm     70% 0.00in /  0mm 0 W/m2
03:44 51.1 °F /  10.6 °C 41.7 °F /  5.4 °C 29.73in /  1006.7hPa Calm     69.8% 0.00in /  0mm 0 W/m2
03:49 51.2 °F /  10.7 °C 41.5 °F /  5.3 °C 29.72in /  1006.3hPa Calm     69.3% 0.00in /  0mm 0 W/m2
03:54 51.3 °F /  10.7 °C 41.8 °F /  5.4 °C 29.72in /  1006.3hPa Calm     69.8% 0.00in /  0mm 0 W/m2
03:59 51.4 °F /  10.8 °C 41.6 °F /  5.3 °C 29.72in /  1006.3hPa Calm     69.2% 0.00in /  0mm 0 W/m2
04:00 51.4 °F /  10.8 °C 41.6 °F /  5.3 °C 29.72in /  1006.3hPa Calm     69% 0.00in /  0mm 0 W/m2
04:09 51.5 °F /  10.8 °C 41.9 °F /  5.5 °C 29.72in /  1006.3hPa Calm     69.5% 0.00in /  0mm 0 W/m2
04:14 51.6 °F /  10.9 °C 42.1 °F /  5.6 °C 29.72in /  1006.3hPa Calm     70% 0.00in /  0mm 0 W/m2
04:19 51.6 °F /  10.9 °C 41.5 °F /  5.3 °C 29.71in /  1006hPa Calm     68.3% 0.00in /  0mm 0 W/m2
04:24 51.7 °F /  10.9 °C 41.5 °F /  5.3 °C 29.71in /  1006hPa Calm     68% 0.00in /  0mm 0 W/m2
04:29 51.8 °F /  11 °C 41.1 °F /  5.1 °C 29.71in /  1006hPa Calm     66.6% 0.00in /  0mm 0 W/m2
04:34 51.9 °F /  11.1 °C 40.9 °F /  4.9 °C 29.71in /  1006hPa NNW 0.1mph /  0.2km/h 1mph /  1.6km/h 66% 0.00in /  0mm 0 W/m2
04:39 52.1 °F /  11.2 °C 41.1 °F /  5.1 °C 29.71in /  1006hPa Calm   1mph /  1.6km/h 66% 0.00in /  0mm 0 W/m2
04:44 52.2 °F /  11.2 °C 41.3 °F /  5.2 °C 29.70in /  1005.6hPa Calm   1mph /  1.6km/h 66.1% 0.00in /  0mm 0 W/m2
04:49 52.3 °F /  11.3 °C 41 °F /  5 °C 29.70in /  1005.6hPa Calm   1mph /  1.6km/h 65.1% 0.00in /  0mm 0 W/m2
04:54 52.5 °F /  11.4 °C 40.8 °F /  4.9 °C 29.70in /  1005.6hPa Calm   1mph /  1.6km/h 64.3% 0.00in /  0mm 0 W/m2
04:59 52.7 °F /  11.5 °C 40.5 °F /  4.7 °C 29.70in /  1005.6hPa NNW 0.1mph /  0.2km/h 2mph /  3.2km/h 63.1% 0.00in /  0mm 0 W/m2
05:04 52.9 °F /  11.6 °C 40.3 °F /  4.6 °C 29.70in /  1005.6hPa NNW 0.1mph /  0.2km/h 2mph /  3.2km/h 62% 0.00in /  0mm 0 W/m2
05:09 53.1 °F /  11.7 °C 40.3 °F /  4.6 °C 29.70in /  1005.6hPa NNW 0.1mph /  0.2km/h 2mph /  3.2km/h 61.5% 0.00in /  0mm 0 W/m2
05:14 53.3 °F /  11.8 °C 40.2 °F /  4.6 °C 29.70in /  1005.6hPa Calm   2mph /  3.2km/h 61% 0.00in /  0mm 0 W/m2
05:19 53.4 °F /  11.9 °C 40.1 °F /  4.5 °C 29.70in /  1005.6hPa NNW 0.1mph /  0.2km/h 2mph /  3.2km/h 60.5% 0.00in /  0mm 0 W/m2
05:24 53.5 °F /  11.9 °C 40.2 °F /  4.6 °C 29.70in /  1005.6hPa Calm   2mph /  3.2km/h 60.4% 0.00in /  0mm 0 W/m2
05:29 53.6 °F /  12 °C 40.4 °F /  4.7 °C 29.70in /  1005.6hPa NNW 0.1mph /  0.2km/h 2mph /  3.2km/h 60.6% 0.00in /  0mm 0 W/m2
05:34 53.7 °F /  12.1 °C 40.5 °F /  4.7 °C 29.70in /  1005.6hPa NNW 0.2mph /  0.3km/h 3mph /  4.8km/h 60.9% 0.00in /  0mm 0 W/m2
05:39 53.7 °F /  12.1 °C 40.4 °F /  4.7 °C 29.70in /  1005.6hPa NNW 0.1mph /  0.2km/h 3mph /  4.8km/h 60.5% 0.00in /  0mm 0 W/m2
05:44 53.8 °F /  12.1 °C 40.3 °F /  4.6 °C 29.70in /  1005.6hPa Calm   3mph /  4.8km/h 60% 0.00in /  0mm 0 W/m2
05:49 53.8 °F /  12.1 °C 40.3 °F /  4.6 °C 29.70in /  1005.6hPa NNW 0.1mph /  0.2km/h 3mph /  4.8km/h 60% 0.00in /  0mm 0 W/m2
05:54 53.8 °F /  12.1 °C 40.3 °F /  4.6 °C 29.70in /  1005.6hPa Calm   3mph /  4.8km/h 60% 0.00in /  0mm 0 W/m2
05:59 53.8 °F /  12.1 °C 40.1 °F /  4.5 °C 29.70in /  1005.6hPa NNW 0.1mph /  0.2km/h 3mph /  4.8km/h 59.5% 0.00in /  0mm 7 W/m2
06:04 53.8 °F /  12.1 °C 39.8 °F /  4.3 °C 29.70in /  1005.6hPa Calm   3mph /  4.8km/h 59% 0.00in /  0mm 9 W/m2
06:09 53.8 °F /  12.1 °C 39.8 °F /  4.3 °C 29.70in /  1005.6hPa Calm     59% 0.00in /  0mm 11 W/m2
06:14 53.8 °F /  12.1 °C 39.8 °F /  4.3 °C 29.70in /  1005.6hPa Calm   1mph /  1.6km/h 59% 0.00in /  0mm 16 W/m2
06:19 53.7 °F /  12.1 °C 39.7 °F /  4.3 °C 29.70in /  1005.6hPa Calm   1mph /  1.6km/h 59% 0.00in /  0mm 16 W/m2
06:24 53.6 °F /  12 °C 39.6 °F /  4.2 °C 29.70in /  1005.6hPa Calm   1mph /  1.6km/h 59% 0.00in /  0mm 14 W/m2
06:29 53.5 °F /  11.9 °C 39.5 °F /  4.2 °C 29.71in /  1006hPa Calm   1mph /  1.6km/h 59% 0.00in /  0mm 19 W/m2
06:34 53.3 °F /  11.8 °C 39.4 °F /  4.1 °C 29.71in /  1006hPa Calm   1mph /  1.6km/h 59.1% 0.00in /  0mm 19 W/m2
06:39 53.3 °F /  11.8 °C 39.7 °F /  4.3 °C 29.71in /  1006hPa Calm     60% 0.00in /  0mm 32 W/m2
06:44 53.2 °F /  11.8 °C 39.7 °F /  4.3 °C 29.71in /  1006hPa Calm   1mph /  1.6km/h 60% 0.00in /  0mm 56 W/m2
06:49 53.1 °F /  11.7 °C 40 °F /  4.4 °C 29.71in /  1006hPa Calm   1mph /  1.6km/h 61% 0.00in /  0mm 70 W/m2
06:54 53 °F /  11.7 °C 40.4 °F /  4.7 °C 29.71in /  1006hPa Calm   2mph /  3.2km/h 62% 0.00in /  0mm 70 W/m2
06:59 53 °F /  11.7 °C 40.4 °F /  4.7 °C 29.71in /  1006hPa NNW 0.1mph /  0.2km/h 2mph /  3.2km/h 62% 0.00in /  0mm 95 W/m2
07:04 53.1 °F /  11.7 °C 40.5 °F /  4.7 °C 29.70in /  1005.6hPa NNW 0.1mph /  0.2km/h 2mph /  3.2km/h 62% 0.00in /  0mm 102 W/m2
07:09 53.3 °F /  11.8 °C 40.3 °F /  4.6 °C 29.70in /  1005.6hPa NNW 0.3mph /  0.5km/h 3mph /  4.8km/h 61.3% 0.00in /  0mm 79 W/m2
07:14 53.5 °F /  11.9 °C 40.2 °F /  4.6 °C 29.70in /  1005.6hPa NW 0.5mph /  0.8km/h 3mph /  4.8km/h 60.4% 0.00in /  0mm 88 W/m2
07:19 53.7 °F /  12.1 °C 40.2 °F /  4.6 °C 29.71in /  1006hPa NW 0.3mph /  0.5km/h 3mph /  4.8km/h 60% 0.00in /  0mm 95 W/m2
07:24 54 °F /  12.2 °C 40 °F /  4.4 °C 29.71in /  1006hPa NW 0.3mph /  0.5km/h 3mph /  4.8km/h 59.1% 0.00in /  0mm 86 W/m2
07:29 54.2 °F /  12.3 °C 40.2 °F /  4.6 °C 29.71in /  1006hPa NW 0.5mph /  0.8km/h 3mph /  4.8km/h 59% 0.00in /  0mm 107 W/m2
07:34 54.4 °F /  12.4 °C 40.2 °F /  4.6 °C 29.71in /  1006hPa NW 0.3mph /  0.5km/h 3mph /  4.8km/h 58.6% 0.00in /  0mm 155 W/m2
07:39 54.7 °F /  12.6 °C 40.4 °F /  4.7 °C 29.70in /  1005.6hPa NW 0.4mph /  0.6km/h 3mph /  4.8km/h 58.5% 0.00in /  0mm 269 W/m2
07:44 55.2 °F /  12.9 °C 40.9 °F /  4.9 °C 29.70in /  1005.6hPa NW 0.3mph /  0.5km/h 3mph /  4.8km/h 58.4% 0.00in /  0mm 264 W/m2
07:49 56 °F /  13.3 °C 40.8 °F /  4.9 °C 29.70in /  1005.6hPa NW 0.2mph /  0.3km/h 3mph /  4.8km/h 56.6% 0.00in /  0mm 343 W/m2
07:54 56.9 °F /  13.8 °C 41.5 °F /  5.3 °C 29.70in /  1005.6hPa WNW 0.1mph /  0.2km/h 3mph /  4.8km/h 56.4% 0.00in /  0mm 383 W/m2
07:59 58 °F /  14.4 °C 41.8 °F /  5.4 °C 29.70in /  1005.6hPa WNW 0.3mph /  0.5km/h 3mph /  4.8km/h 54.7% 0.00in /  0mm 392 W/m2
08:00 58.5 °F /  14.7 °C 41.5 °F /  5.3 °C 29.70in /  1005.6hPa Calm   3mph /  4.8km/h 53% 0.00in /  0mm 392 W/m2
08:09 60.1 °F /  15.6 °C 42.3 °F /  5.7 °C 29.70in /  1005.6hPa WNW 0.3mph /  0.5km/h 4mph /  6.4km/h 51.7% 0.00in /  0mm 418 W/m2
08:14 61 °F /  16.1 °C 41.6 °F /  5.3 °C 29.70in /  1005.6hPa WSW 0.3mph /  0.5km/h 4mph /  6.4km/h 48.8% 0.00in /  0mm 438 W/m2
08:19 61.8 °F /  16.6 °C 41.7 °F /  5.4 °C 29.69in /  1005.3hPa SW 0.2mph /  0.3km/h 4mph /  6.4km/h 47.6% 0.00in /  0mm 450 W/m2
08:24 62.6 °F /  17 °C 41.3 °F /  5.2 °C 29.70in /  1005.6hPa SSW 0.8mph /  1.3km/h 5mph /  8km/h 45.7% 0.00in /  0mm 466 W/m2
08:29 63.3 °F /  17.4 °C 41.7 °F /  5.4 °C 29.70in /  1005.6hPa SW 0.3mph /  0.5km/h 5mph /  8km/h 45.2% 0.00in /  0mm 471 W/m2
08:34 63.9 °F /  17.7 °C 41.2 °F /  5.1 °C 29.69in /  1005.3hPa SW 0.1mph /  0.2km/h 5mph /  8km/h 43.3% 0.00in /  0mm 506 W/m2
08:39 64.6 °F /  18.1 °C 41.9 °F /  5.5 °C 29.69in /  1005.3hPa SW 0.3mph /  0.5km/h 3mph /  4.8km/h 43.6% 0.00in /  0mm 517 W/m2
08:44 65.3 °F /  18.5 °C 41.7 °F /  5.4 °C 29.69in /  1005.3hPa SW 0.6mph /  1km/h 4mph /  6.4km/h 42.2% 0.00in /  0mm 533 W/m2
08:49 66 °F /  18.9 °C 41.6 °F /  5.3 °C 29.69in /  1005.3hPa Calm   4mph /  6.4km/h 41% 0.00in /  0mm 552 W/m2
08:51 66.3 °F /  19.1 °C 41.1 °F /  5.1 °C 29.69in /  1005.3hPa Calm   4mph /  6.4km/h 39.8% 0.00in /  0mm 545 W/m2
09:00 66.9 °F /  19.4 °C 42.5 °F /  5.8 °C 29.68in /  1005hPa Calm   4mph /  6.4km/h 41% 0.00in /  0mm 523 W/m2
09:30 70.8 °F /  21.6 °C 43.3 °F /  6.3 °C 29.68in /  1005hPa SW 1mph /  1.6km/h 9mph /  14.5km/h 37% 0.00in /  0mm 618 W/m2
10:00 72 °F /  22.2 °C 43.6 °F /  6.4 °C 29.66in /  1004.3hPa SW 2mph /  3.2km/h 11mph /  17.7km/h 36% 0.00in /  0mm 713 W/m2
10:30 75.2 °F /  24 °C 46.4 °F /  8 °C 29.65in /  1003.9hPa WSW 1mph /  1.6km/h 10mph /  16.1km/h 36% 0.00in /  0mm 785 W/m2
11:00 76.9 °F /  24.9 °C 47.9 °F /  8.8 °C 29.66in /  1004.3hPa WSW 1mph /  1.6km/h 7mph /  11.3km/h 36% 0.00in /  0mm 859 W/m2
11:30 78.2 °F /  25.7 °C 50.5 °F /  10.3 °C 29.65in /  1003.9hPa WSW 2mph /  3.2km/h 10mph /  16.1km/h 38% 0.00in /  0mm 894 W/m2
12:04 79.1 °F /  26.2 °C 47.2 °F /  8.4 °C 29.64in /  1003.6hPa West 1.1mph /  1.8km/h 3mph /  4.8km/h 32.5% 0.00in /  0mm 499 W/m2
12:09 78.7 °F /  25.9 °C 48.1 °F /  8.9 °C 29.64in /  1003.6hPa SW 2.7mph /  4.3km/h 12mph /  19.3km/h 34.1% 0.00in /  0mm 591 W/m2
12:14 78 °F /  25.6 °C 48 °F /  8.9 °C 29.63in /  1003.3hPa WSW 1.4mph /  2.3km/h 12mph /  19.3km/h 34.8% 0.00in /  0mm 591 W/m2
12:19 77.7 °F /  25.4 °C 49 °F /  9.4 °C 29.63in /  1003.3hPa WSW 1mph /  1.6km/h 12mph /  19.3km/h 36.5% 0.00in /  0mm 819 W/m2
12:24 77.8 °F /  25.4 °C 48.4 °F /  9.1 °C 29.63in /  1003.3hPa SW 1.3mph /  2.1km/h 12mph /  19.3km/h 35.5% 0.00in /  0mm 905 W/m2
12:29 78 °F /  25.6 °C 48.7 °F /  9.3 °C 29.63in /  1003.3hPa SW 0.9mph /  1.4km/h 12mph /  19.3km/h 35.7% 0.00in /  0mm 905 W/m2
12:34 78 °F /  25.6 °C 49.6 °F /  9.8 °C 29.62in /  1002.9hPa SW 0.3mph /  0.5km/h 12mph /  19.3km/h 37% 0.00in /  0mm 656 W/m2
12:39 78.1 °F /  25.6 °C 50.1 °F /  10.1 °C 29.62in /  1002.9hPa West 1.5mph /  2.4km/h 7mph /  11.3km/h 37.5% 0.00in /  0mm 527 W/m2
12:44 78.2 °F /  25.7 °C 49 °F /  9.4 °C 29.62in /  1002.9hPa WNW 2.5mph /  4km/h 11mph /  17.7km/h 35.9% 0.00in /  0mm 708 W/m2
12:49 78.4 °F /  25.8 °C 50 °F /  10 °C 29.62in /  1002.9hPa WSW 0.4mph /  0.6km/h 11mph /  17.7km/h 37% 0.00in /  0mm 1048 W/m2
12:54 79 °F /  26.1 °C 50.4 °F /  10.2 °C 29.62in /  1002.9hPa West 3.4mph /  5.5km/h 12mph /  19.3km/h 36.8% 0.00in /  0mm 1071 W/m2
12:59 79.5 °F /  26.4 °C 48.5 °F /  9.2 °C 29.62in /  1002.9hPa WNW 6.7mph /  10.8km/h 14mph /  22.5km/h 33.7% 0.00in /  0mm 1071 W/m2
13:04 79.4 °F /  26.3 °C 49.1 °F /  9.5 °C 29.61in /  1002.6hPa WNW 4.3mph /  6.9km/h 14mph /  22.5km/h 34.7% 0.00in /  0mm 1028 W/m2
13:09 79.5 °F /  26.4 °C 49.7 °F /  9.8 °C 29.61in /  1002.6hPa WNW 2.2mph /  3.5km/h 12mph /  19.3km/h 35.3% 0.00in /  0mm 986 W/m2
13:14 79.9 °F /  26.6 °C 50.4 °F /  10.2 °C 29.61in /  1002.6hPa West 1.8mph /  2.9km/h 12mph /  19.3km/h 35.8% 0.00in /  0mm 1118 W/m2
13:19 80 °F /  26.7 °C 49.5 °F /  9.7 °C 29.61in /  1002.6hPa SW 1.9mph /  3.1km/h 15mph /  24.1km/h 34.5% 0.00in /  0mm 1118 W/m2
13:24 80 °F /  26.7 °C 50.2 °F /  10.1 °C 29.61in /  1002.6hPa WNW 1.3mph /  2.1km/h 15mph /  24.1km/h 35.3% 0.00in /  0mm 1232 W/m2
13:29 80.1 °F /  26.7 °C 50.5 °F /  10.3 °C 29.60in /  1002.3hPa West 0.6mph /  1km/h 15mph /  24.1km/h 35.6% 0.00in /  0mm 1158 W/m2
13:34 80.6 °F /  27 °C 50.7 °F /  10.4 °C 29.61in /  1002.6hPa WSW 1.7mph /  2.7km/h 15mph /  24.1km/h 35.3% 0.00in /  0mm 578 W/m2
13:39 81.1 °F /  27.3 °C 50.8 °F /  10.4 °C 29.60in /  1002.3hPa West 2.6mph /  4.2km/h 9mph /  14.5km/h 35% 0.00in /  0mm 1137 W/m2
13:44 81.2 °F /  27.3 °C 50.2 °F /  10.1 °C 29.60in /  1002.3hPa SW 2.7mph /  4.3km/h 9mph /  14.5km/h 34.1% 0.00in /  0mm 1092 W/m2
13:49 81 °F /  27.2 °C 49.6 °F /  9.8 °C 29.60in /  1002.3hPa SW 2.4mph /  3.9km/h 9mph /  14.5km/h 33.5% 0.00in /  0mm 1113 W/m2
13:54 80.9 °F /  27.2 °C 50.6 °F /  10.3 °C 29.60in /  1002.3hPa WSW 2.7mph /  4.3km/h 10mph /  16.1km/h 35% 0.00in /  0mm 761 W/m2
13:59 80.8 °F /  27.1 °C 49.4 °F /  9.7 °C 29.60in /  1002.3hPa SW 4.5mph /  7.2km/h 16mph /  25.7km/h 33.4% 0.00in /  0mm 761 W/m2
14:04 80.5 °F /  26.9 °C 50.3 °F /  10.2 °C 29.61in /  1002.6hPa West 4mph /  6.4km/h 16mph /  25.7km/h 34.9% 0.00in /  0mm 1063 W/m2
14:09 80.7 °F /  27.1 °C 51.5 °F /  10.8 °C 29.61in /  1002.6hPa West 1.2mph /  1.9km/h 12mph /  19.3km/h 36.2% 0.00in /  0mm 1041 W/m2
14:14 81.2 °F /  27.3 °C 50.7 °F /  10.4 °C 29.61in /  1002.6hPa West 1.2mph /  1.9km/h 12mph /  19.3km/h 34.6% 0.00in /  0mm 960 W/m2
14:19 81.6 °F /  27.6 °C 50.3 °F /  10.2 °C 29.61in /  1002.6hPa West 1.7mph /  2.7km/h 12mph /  19.3km/h 33.8% 0.00in /  0mm 970 W/m2
14:24 81.7 °F /  27.6 °C 50.2 °F /  10.1 °C 29.61in /  1002.6hPa WSW 4.6mph /  7.4km/h 12mph /  19.3km/h 33.4% 0.00in /  0mm 970 W/m2
14:29 81.6 °F /  27.6 °C 49.7 °F /  9.8 °C 29.61in /  1002.6hPa SW 0.4mph /  0.6km/h 12mph /  19.3km/h 32.9% 0.00in /  0mm 503 W/m2
14:34 81.4 °F /  27.4 °C 49.8 °F /  9.9 °C 29.61in /  1002.6hPa WSW 1.9mph /  3.1km/h 12mph /  19.3km/h 33.3% 0.00in /  0mm 1053 W/m2
14:39 81.5 °F /  27.5 °C 52.2 °F /  11.2 °C 29.60in /  1002.3hPa WNW 0.9mph /  1.4km/h 7mph /  11.3km/h 36.3% 0.00in /  0mm 997 W/m2
14:44 82.1 °F /  27.8 °C 51.2 °F /  10.7 °C 29.60in /  1002.3hPa WNW 4.3mph /  6.9km/h 9mph /  14.5km/h 34.3% 0.00in /  0mm 918 W/m2
14:49 82.4 °F /  28 °C 50.6 °F /  10.3 °C 29.60in /  1002.3hPa WNW 4.9mph /  7.9km/h 14mph /  22.5km/h 33.2% 0.00in /  0mm 912 W/m2
14:54 82.4 °F /  28 °C 49.9 °F /  9.9 °C 29.61in /  1002.6hPa WNW 6.8mph /  10.9km/h 16mph /  25.7km/h 32.3% 0.00in /  0mm 912 W/m2
14:59 82 °F /  27.8 °C 50.9 °F /  10.5 °C 29.60in /  1002.3hPa West 2.7mph /  4.3km/h 16mph /  25.7km/h 34% 0.00in /  0mm 306 W/m2
15:04 81.8 °F /  27.7 °C 51 °F /  10.6 °C 29.61in /  1002.6hPa NW 1.1mph /  1.8km/h 16mph /  25.7km/h 34.3% 0.00in /  0mm 306 W/m2
15:09 81.9 °F /  27.7 °C 51.2 °F /  10.7 °C 29.61in /  1002.6hPa WNW 0.7mph /  1.1km/h 9mph /  14.5km/h 34.6% 0.00in /  0mm 318 W/m2
15:14 82 °F /  27.8 °C 50.8 °F /  10.4 °C 29.61in /  1002.6hPa WNW 4.3mph /  6.9km/h 14mph /  22.5km/h 33.9% 0.00in /  0mm 926 W/m2
15:19 82.1 °F /  27.8 °C 51.5 °F /  10.8 °C 29.61in /  1002.6hPa WNW 4.5mph /  7.2km/h 16mph /  25.7km/h 34.7% 0.00in /  0mm 926 W/m2
15:24 82.3 °F /  27.9 °C 52.5 °F /  11.4 °C 29.61in /  1002.6hPa WNW 6.5mph /  10.5km/h 17mph /  27.4km/h 35.7% 0.00in /  0mm 849 W/m2
15:29 82.4 °F /  28 °C 51.8 °F /  11 °C 29.61in /  1002.6hPa WNW 4.4mph /  7.1km/h 17mph /  27.4km/h 34.7% 0.00in /  0mm 807 W/m2
15:34 82.5 °F /  28.1 °C 52.7 °F /  11.5 °C 29.61in /  1002.6hPa WNW 1.4mph /  2.3km/h 17mph /  27.4km/h 35.7% 0.00in /  0mm 807 W/m2
15:39 82.5 °F /  28.1 °C 52.9 °F /  11.6 °C 29.60in /  1002.3hPa WNW 2.7mph /  4.3km/h 11mph /  17.7km/h 36% 0.00in /  0mm 457 W/m2
15:44 82.2 °F /  27.9 °C 51.4 °F /  10.8 °C 29.61in /  1002.6hPa West 3.5mph /  5.6km/h 11mph /  17.7km/h 34.4% 0.00in /  0mm 308 W/m2
15:49 81.8 °F /  27.7 °C 52.3 °F /  11.3 °C 29.61in /  1002.6hPa WNW 3.2mph /  5.1km/h 11mph /  17.7km/h 36% 0.00in /  0mm 308 W/m2
15:54 81.4 °F /  27.4 °C 51.9 °F /  11.1 °C 29.61in /  1002.6hPa NW 4.3mph /  6.9km/h 11mph /  17.7km/h 36% 0.00in /  0mm 181 W/m2
15:59 81 °F /  27.2 °C 51.4 °F /  10.8 °C 29.61in /  1002.6hPa NW 6.4mph /  10.3km/h 17mph /  27.4km/h 35.8% 0.00in /  0mm 165 W/m2
16:04 80.3 °F /  26.8 °C 50.9 °F /  10.5 °C 29.62in /  1002.9hPa NE 0.3mph /  0.5km/h 2mph /  3.2km/h 36% 0.00in /  0mm 199 W/m2
16:09 79.9 °F /  26.6 °C 50.7 °F /  10.4 °C 29.62in /  1002.9hPa NE 1.1mph /  1.8km/h 5mph /  8km/h 36.1% 0.00in /  0mm 225 W/m2
16:14 78.9 °F /  26.1 °C 50.1 °F /  10.1 °C 29.64in /  1003.6hPa NNW 4.3mph /  6.9km/h 17mph /  27.4km/h 36.5% 0.00in /  0mm 114 W/m2
16:19 78 °F /  25.6 °C 49.9 °F /  9.9 °C 29.64in /  1003.6hPa NNW 3.4mph /  5.5km/h 17mph /  27.4km/h 37.4% 0.00in /  0mm 135 W/m2
16:24 77.3 °F /  25.2 °C 50.4 °F /  10.2 °C 29.64in /  1003.6hPa NW 4.7mph /  7.6km/h 17mph /  27.4km/h 39% 0.00in /  0mm 172 W/m2
16:29 76.2 °F /  24.6 °C 51.5 °F /  10.8 °C 29.65in /  1003.9hPa NW 4.8mph /  7.7km/h 17mph /  27.4km/h 42.1% 0.00in /  0mm 162 W/m2
16:34 75 °F /  23.9 °C 51.8 °F /  11 °C 29.66in /  1004.3hPa NNW 1.6mph /  2.6km/h 17mph /  27.4km/h 44.2% 0.00in /  0mm 172 W/m2
16:39 74.1 °F /  23.4 °C 52 °F /  11.1 °C 29.67in /  1004.6hPa NNW 3.7mph /  6km/h 14mph /  22.5km/h 45.8% 0.00in /  0mm 167 W/m2
16:44 73.5 °F /  23.1 °C 51.9 °F /  11.1 °C 29.68in /  1005hPa NNW 3.7mph /  6km/h 14mph /  22.5km/h 46.8% 0.00in /  0mm 169 W/m2
16:49 72.9 °F /  22.7 °C 52.2 °F /  11.2 °C 29.68in /  1005hPa North 0.9mph /  1.4km/h 14mph /  22.5km/h 48.2% 0.00in /  0mm 181 W/m2
16:54 72.5 °F /  22.5 °C 52.3 °F /  11.3 °C 29.69in /  1005.3hPa North 0.3mph /  0.5km/h 14mph /  22.5km/h 49% 0.00in /  0mm 123 W/m2
16:59 72.2 °F /  22.3 °C 52.7 °F /  11.5 °C 29.69in /  1005.3hPa NW 0.6mph /  1km/h 14mph /  22.5km/h 50.4% 0.00in /  0mm 141 W/m2
17:04 72 °F /  22.2 °C 52.7 °F /  11.5 °C 29.69in /  1005.3hPa NNW 1.3mph /  2.1km/h 14mph /  22.5km/h 50.6% 0.00in /  0mm 83 W/m2
17:09 71.8 °F /  22.1 °C 52.9 °F /  11.6 °C 29.69in /  1005.3hPa NW 3.4mph /  5.5km/h 10mph /  16.1km/h 51.3% 0.00in /  0mm 97 W/m2
17:14 71.4 °F /  21.9 °C 53.1 °F /  11.7 °C 29.70in /  1005.6hPa NW 2mph /  3.2km/h 11mph /  17.7km/h 52.5% 0.00in /  0mm 77 W/m2
17:19 70.9 °F /  21.6 °C 53.3 °F /  11.8 °C 29.70in /  1005.6hPa NW 5.4mph /  8.7km/h 13mph /  20.9km/h 53.6% 0.00in /  0mm 76 W/m2
17:24 70.3 °F /  21.3 °C 53.4 °F /  11.9 °C 29.70in /  1005.6hPa NW 2.4mph /  3.9km/h 13mph /  20.9km/h 55% 0.00in /  0mm 97 W/m2
17:29 69.7 °F /  20.9 °C 53.4 °F /  11.9 °C 29.70in /  1005.6hPa NW 4.5mph /  7.2km/h 17mph /  27.4km/h 56.3% 0.00in /  0mm 116 W/m2
17:34 69.1 °F /  20.6 °C 53.3 °F /  11.8 °C 29.69in /  1005.3hPa NW 5.1mph /  8.2km/h 17mph /  27.4km/h 57.2% 0.00in /  0mm 107 W/m2
17:39 68.6 °F /  20.3 °C 53.5 °F /  11.9 °C 29.69in /  1005.3hPa NW 2.4mph /  3.9km/h 17mph /  27.4km/h 58.5% 0.00in /  0mm 93 W/m2
17:44 68.3 °F /  20.2 °C 53.7 °F /  12.1 °C 29.70in /  1005.6hPa NW 0.3mph /  0.5km/h 17mph /  27.4km/h 59.5% 0.00in /  0mm 58 W/m2
17:49 68.1 °F /  20.1 °C 53.9 °F /  12.2 °C 29.70in /  1005.6hPa NNW 2.1mph /  3.4km/h 17mph /  27.4km/h 60.3% 0.00in /  0mm 32 W/m2
17:54 67.8 °F /  19.9 °C 53.9 °F /  12.2 °C 29.72in /  1006.3hPa NW 5.1mph /  8.2km/h 17mph /  27.4km/h 61% 0.00in /  0mm 23 W/m2
17:59 67.4 °F /  19.7 °C 54.2 °F /  12.3 °C 29.73in /  1006.7hPa NW 3.2mph /  5.1km/h 17mph /  27.4km/h 62.5% 0.00in /  0mm 12 W/m2
18:04 67.1 °F /  19.5 °C 54.4 °F /  12.4 °C 29.73in /  1006.7hPa NNW 1.2mph /  1.9km/h 17mph /  27.4km/h 63.8% 0.00in /  0mm 7 W/m2
18:09 66.8 °F /  19.3 °C 54.8 °F /  12.7 °C 29.73in /  1006.7hPa NW 3.9mph /  6.3km/h 13mph /  20.9km/h 65.5% 0.00in /  0mm 7 W/m2
18:14 66.4 °F /  19.1 °C 54.7 °F /  12.6 °C 29.74in /  1007hPa NNW 2.2mph /  3.5km/h 13mph /  20.9km/h 66% 0.00in /  0mm 5 W/m2
18:19 66 °F /  18.9 °C 55 °F /  12.8 °C 29.74in /  1007hPa NNW 2.6mph /  4.2km/h 13mph /  20.9km/h 67.6% 0.00in /  0mm 0 W/m2
18:24 65.7 °F /  18.7 °C 55.2 °F /  12.9 °C 29.75in /  1007.3hPa NNW 0.6mph /  1km/h 13mph /  20.9km/h 68.9% 0.00in /  0mm 0 W/m2
18:29 65.3 °F /  18.5 °C 55.4 °F /  13 °C 29.74in /  1007hPa NE 1.3mph /  2.1km/h 13mph /  20.9km/h 70.3% 0.00in /  0mm 7 W/m2
18:34 64.8 °F /  18.2 °C 55.6 °F /  13.1 °C 29.74in /  1007hPa NE 0.4mph /  0.6km/h 13mph /  20.9km/h 72% 0.00in /  0mm 7 W/m2
18:39 64.3 °F /  17.9 °C 55.9 °F /  13.3 °C 29.75in /  1007.3hPa Calm   4mph /  6.4km/h 74.1% 0.00in /  0mm 12 W/m2
18:44 63.9 °F /  17.7 °C 55.8 °F /  13.2 °C 29.75in /  1007.3hPa NNW 1.4mph /  2.3km/h 7mph /  11.3km/h 75% 0.00in /  0mm 21 W/m2
18:49 63.6 °F /  17.6 °C 55.8 °F /  13.2 °C 29.75in /  1007.3hPa NNW 1.6mph /  2.6km/h 11mph /  17.7km/h 75.6% 0.00in /  0mm 9 W/m2
18:54 63.5 °F /  17.5 °C 55.6 °F /  13.1 °C 29.76in /  1007.7hPa NNW 1.3mph /  2.1km/h 11mph /  17.7km/h 75.6% 0.00in /  0mm 0 W/m2
18:59 63.4 °F /  17.4 °C 55.7 °F /  13.2 °C 29.76in /  1007.7hPa North 1.2mph /  1.9km/h 11mph /  17.7km/h 76% 0.00in /  0mm 5 W/m2
19:04 63.3 °F /  17.4 °C 55.6 °F /  13.1 °C 29.75in /  1007.3hPa NNW 1.6mph /  2.6km/h 11mph /  17.7km/h 76% 0.00in /  0mm 0 W/m2
19:09 63.2 °F /  17.3 °C 55.7 °F /  13.2 °C 29.75in /  1007.3hPa NW 2mph /  3.2km/h 10mph /  16.1km/h 76.4% 0.00in /  0mm 0 W/m2
19:14 63 °F /  17.2 °C 55.4 °F /  13 °C 29.76in /  1007.7hPa NW 4mph /  6.4km/h 13mph /  20.9km/h 76.1% 0.00in /  0mm 0 W/m2
19:19 62.8 °F /  17.1 °C 55.4 °F /  13 °C 29.76in /  1007.7hPa NNW 1.9mph /  3.1km/h 13mph /  20.9km/h 76.9% 0.00in /  0mm 0 W/m2
19:24 62.5 °F /  16.9 °C 55.5 °F /  13.1 °C 29.77in /  1008hPa North 1mph /  1.6km/h 13mph /  20.9km/h 77.6% 0.00in /  0mm 0 W/m2
19:29 62.4 °F /  16.9 °C 55.5 °F /  13.1 °C 29.76in /  1007.7hPa NNW 0.4mph /  0.6km/h 13mph /  20.9km/h 78% 0.00in /  0mm 0 W/m2
19:34 62.3 °F /  16.8 °C 55.3 °F /  12.9 °C 29.76in /  1007.7hPa NNW 1mph /  1.6km/h 13mph /  20.9km/h 78% 0.00in /  0mm 0 W/m2
19:39 62.1 °F /  16.7 °C 54.9 °F /  12.7 °C 29.76in /  1007.7hPa NNE 0.1mph /  0.2km/h 6mph /  9.7km/h 77.2% 0.00in /  0mm 0 W/m2
19:44 61.9 °F /  16.6 °C 54.9 °F /  12.7 °C 29.77in /  1008hPa North 0.4mph /  0.6km/h 6mph /  9.7km/h 77.9% 0.00in /  0mm 0 W/m2
19:49 61.7 °F /  16.5 °C 54.8 °F /  12.7 °C 29.77in /  1008hPa NNE 0.3mph /  0.5km/h 6mph /  9.7km/h 78% 0.00in /  0mm 0 W/m2
19:54 61.5 °F /  16.4 °C 54.6 °F /  12.6 °C 29.77in /  1008hPa Calm   6mph /  9.7km/h 78% 0.00in /  0mm 0 W/m2
19:59 61.4 °F /  16.3 °C 54.5 °F /  12.5 °C 29.76in /  1007.7hPa Calm   6mph /  9.7km/h 78% 0.00in /  0mm 0 W/m2
20:00 61.3 °F /  16.3 °C 54.4 °F /  12.4 °C 29.76in /  1007.7hPa Calm   6mph /  9.7km/h 78% 0.00in /  0mm 0 W/m2
20:09 61.2 °F /  16.2 °C 54.3 °F /  12.4 °C 29.77in /  1008hPa North 1.5mph /  2.4km/h 5mph /  8km/h 78% 0.00in /  0mm 0 W/m2
20:14 61 °F /  16.1 °C 54.1 °F /  12.3 °C 29.76in /  1007.7hPa NW 2.1mph /  3.4km/h 6mph /  9.7km/h 78% 0.00in /  0mm 0 W/m2
20:19 60.9 °F /  16.1 °C 54 °F /  12.2 °C 29.76in /  1007.7hPa NW 1mph /  1.6km/h 7mph /  11.3km/h 78.2% 0.00in /  0mm 0 W/m2
20:24 60.8 °F /  16 °C 54.2 °F /  12.3 °C 29.76in /  1007.7hPa NNW 1.7mph /  2.7km/h 7mph /  11.3km/h 79% 0.00in /  0mm 0 W/m2
20:29 60.7 °F /  15.9 °C 54.1 °F /  12.3 °C 29.76in /  1007.7hPa NNW 0.7mph /  1.1km/h 7mph /  11.3km/h 79% 0.00in /  0mm 0 W/m2
20:34 60.5 °F /  15.8 °C 54 °F /  12.2 °C 29.76in /  1007.7hPa Calm   7mph /  11.3km/h 79% 0.00in /  0mm 0 W/m2
20:39 60.5 °F /  15.8 °C 54.1 °F /  12.3 °C 29.76in /  1007.7hPa Calm     79.5% 0.00in /  0mm 0 W/m2
20:44 60.4 °F /  15.8 °C 54.2 °F /  12.3 °C 29.76in /  1007.7hPa Calm     80% 0.00in /  0mm 0 W/m2
20:49 60.4 °F /  15.8 °C 54.2 °F /  12.3 °C 29.76in /  1007.7hPa Calm     80% 0.00in /  0mm 0 W/m2
20:54 60.3 °F /  15.7 °C 54.1 °F /  12.3 °C 29.76in /  1007.7hPa Calm     80% 0.00in /  0mm 0 W/m2
20:59 60.3 °F /  15.7 °C 54.1 °F /  12.3 °C 29.76in /  1007.7hPa Calm     80% 0.00in /  0mm 0 W/m2
21:04 60.3 °F /  15.7 °C 54.1 °F /  12.3 °C 29.76in /  1007.7hPa NNW 0.1mph /  0.2km/h 2mph /  3.2km/h 80% 0.00in /  0mm 0 W/m2
21:09 60.3 °F /  15.7 °C 54.1 °F /  12.3 °C 29.76in /  1007.7hPa Calm   2mph /  3.2km/h 80% 0.00in /  0mm 0 W/m2
21:14 60.3 °F /  15.7 °C 54 °F /  12.2 °C 29.77in /  1008hPa NNW 0.6mph /  1km/h 3mph /  4.8km/h 79.8% 0.00in /  0mm 0 W/m2
21:19 60.3 °F /  15.7 °C 53.7 °F /  12.1 °C 29.77in /  1008hPa Calm   3mph /  4.8km/h 79% 0.00in /  0mm 0 W/m2
21:24 60.3 °F /  15.7 °C 53.7 °F /  12.1 °C 29.77in /  1008hPa Calm   3mph /  4.8km/h 79% 0.00in /  0mm 0 W/m2
21:29 60.2 °F /  15.7 °C 53.7 °F /  12.1 °C 29.78in /  1008.4hPa Calm   3mph /  4.8km/h 79% 0.00in /  0mm 0 W/m2
21:34 60.2 °F /  15.7 °C 53.4 °F /  11.9 °C 29.77in /  1008hPa NNW 0.1mph /  0.2km/h 3mph /  4.8km/h 78.3% 0.00in /  0mm 0 W/m2
21:39 60.2 °F /  15.7 °C 52.8 °F /  11.6 °C 29.77in /  1008hPa Calm   2mph /  3.2km/h 76.6% 0.00in /  0mm 0 W/m2
21:44 60.2 °F /  15.7 °C 52.6 °F /  11.4 °C 29.77in /  1008hPa Calm   2mph /  3.2km/h 76% 0.00in /  0mm 0 W/m2
21:49 60.2 °F /  15.7 °C 52.6 °F /  11.4 °C 29.77in /  1008hPa NNW 0.3mph /  0.5km/h 4mph /  6.4km/h 76% 0.00in /  0mm 0 W/m2
21:54 60.2 °F /  15.7 °C 52.6 °F /  11.4 °C 29.77in /  1008hPa NNW 0.6mph /  1km/h 4mph /  6.4km/h 75.8% 0.00in /  0mm 0 W/m2
21:59 60.2 °F /  15.7 °C 52.4 °F /  11.3 °C 29.78in /  1008.4hPa NNW 0.3mph /  0.5km/h 5mph /  8km/h 75.4% 0.00in /  0mm 0 W/m2
22:04 60.1 °F /  15.6 °C 52 °F /  11.1 °C 29.78in /  1008.4hPa WNW 0.9mph /  1.4km/h 6mph /  9.7km/h 74.6% 0.00in /  0mm 0 W/m2
22:09 60.1 °F /  15.6 °C 51.9 °F /  11.1 °C 29.78in /  1008.4hPa Calm   6mph /  9.7km/h 74.2% 0.00in /  0mm 0 W/m2
22:14 60.1 °F /  15.6 °C 51.8 °F /  11 °C 29.78in /  1008.4hPa Calm   6mph /  9.7km/h 74% 0.00in /  0mm 0 W/m2
22:19 60 °F /  15.6 °C 51.7 °F /  10.9 °C 29.78in /  1008.4hPa Calm   6mph /  9.7km/h 74% 0.00in /  0mm 0 W/m2
22:24 60 °F /  15.6 °C 51.7 °F /  10.9 °C 29.78in /  1008.4hPa Calm   6mph /  9.7km/h 74% 0.00in /  0mm 0 W/m2
22:29 60 °F /  15.6 °C 51.4 °F /  10.8 °C 29.78in /  1008.4hPa Calm   6mph /  9.7km/h 73.2% 0.00in /  0mm 0 W/m2
22:34 60 °F /  15.6 °C 51.4 °F /  10.8 °C 29.78in /  1008.4hPa WNW 0.1mph /  0.2km/h 6mph /  9.7km/h 73.1% 0.00in /  0mm 0 W/m2
22:39 60.1 °F /  15.6 °C 51.7 °F /  10.9 °C 29.78in /  1008.4hPa West 2.1mph /  3.4km/h 7mph /  11.3km/h 73.8% 0.00in /  0mm 0 W/m2
22:44 60 °F /  15.6 °C 51.4 °F /  10.8 °C 29.78in /  1008.4hPa NW 1mph /  1.6km/h 9mph /  14.5km/h 73% 0.00in /  0mm 0 W/m2
22:49 60 °F /  15.6 °C 51.3 °F /  10.7 °C 29.79in /  1008.7hPa NW 0.1mph /  0.2km/h 9mph /  14.5km/h 73% 0.00in /  0mm 0 W/m2
22:54 60 °F /  15.6 °C 51.3 °F /  10.7 °C 29.79in /  1008.7hPa West 0.5mph /  0.8km/h 9mph /  14.5km/h 73% 0.00in /  0mm 0 W/m2
22:59 60 °F /  15.6 °C 51.3 °F /  10.7 °C 29.79in /  1008.7hPa Calm   9mph /  14.5km/h 73% 0.00in /  0mm 0 W/m2
23:04 60 °F /  15.6 °C 51.3 °F /  10.7 °C 29.80in /  1009hPa Calm   9mph /  14.5km/h 73% 0.00in /  0mm 0 W/m2
23:09 60 °F /  15.6 °C 51.3 °F /  10.7 °C 29.80in /  1009hPa Calm   1mph /  1.6km/h 73% 0.00in /  0mm 0 W/m2
23:14 60 °F /  15.6 °C 51.3 °F /  10.7 °C 29.80in /  1009hPa WSW 0.1mph /  0.2km/h 2mph /  3.2km/h 73% 0.00in /  0mm 0 W/m2
23:19 60 °F /  15.6 °C 51.3 °F /  10.7 °C 29.80in /  1009hPa WSW 0.4mph /  0.6km/h 4mph /  6.4km/h 73% 0.00in /  0mm 0 W/m2
23:24 59.9 °F /  15.5 °C 51.4 °F /  10.8 °C 29.80in /  1009hPa Calm   4mph /  6.4km/h 73.5% 0.00in /  0mm 0 W/m2
23:29 59.9 °F /  15.5 °C 51.6 °F /  10.9 °C 29.80in /  1009hPa Calm   4mph /  6.4km/h 74% 0.00in /  0mm 0 W/m2
23:34 59.9 °F /  15.5 °C 51.6 °F /  10.9 °C 29.80in /  1009hPa Calm   4mph /  6.4km/h 74% 0.00in /  0mm 0 W/m2
23:39 59.8 °F /  15.4 °C 51.4 °F /  10.8 °C 29.80in /  1009hPa WSW 0.2mph /  0.3km/h 3mph /  4.8km/h 73.7% 0.00in /  0mm 0 W/m2
23:44 59.7 °F /  15.4 °C 51.2 °F /  10.7 °C 29.80in /  1009hPa WSW 0.1mph /  0.2km/h 3mph /  4.8km/h 73.2% 0.00in /  0mm 0 W/m2
23:49 59.7 °F /  15.4 °C 51.2 °F /  10.7 °C 29.80in /  1009hPa Calm   3mph /  4.8km/h 73.4% 0.00in /  0mm 0 W/m2
23:54 59.6 °F /  15.3 °C 51 °F /  10.6 °C 29.80in /  1009hPa Calm   3mph /  4.8km/h 73% 0.00in /  0mm 0 W/m2
23:59 59.6 °F /  15.3 °C 51.2 °F /  10.7 °C 29.80in /  1009hPa Calm   3mph /  4.8km/h 73.7% 0.00in /  0mm 0 W/m2
Hartford County Weather
Compliments of Weather Underground - 2 mb